Impacts TAF Board INFO
FOR SITUATIONAL AWARENESS. NOT TO BE USED FOR FLIGHT PLANNING PURPOSES.
IDs:

KSLC - Salt Lake City Intl, UT, US

Issued at 1131 UTC 12 Dec 2017
Updated at 1201 UTC 12 Dec 2017
Potential Impact None Slight Moderate High
Time<<13/12Z 13/13Z 13/14Z 13/15Z 13/16Z 13/17Z 13/18Z 13/19Z 13/20Z 13/21Z 13/22Z 13/23Z 14/00Z
Type PRVL PRVL PRVL PRVL PRVL PRVL
VIS 0.75 0.75 0.75 0.75 0.75 0.75
CIG 3 3 3 3 3 3
Cover BKN BKN BKN BKN BKN BKN
FltCat LIFR LIFR LIFR LIFR LIFR LIFR
WX BR BCFG BR BCFG BR BCFG BR BCFG BR BCFG BR BCFG
WDir 350 350 350 350 350 350
WSpd 3 3 3 3 3 3
WGst -- -- -- -- -- --

Raw TAF
KSLC 121131Z 1212/1318 34003KT 1/4SM FZFG VV004
  FM121800 34005KT 1SM BR BCFG BKN006
  FM130300 35003KT 3/4SM BR BCFG BKN003


METAR Board
Radar Display
Forecast Discussion

FOR SITUATIONAL AWARENESS. NOT TO BE USED FOR FLIGHT PLANNING PURPOSES.